sensor_id;sensor_type;location;lat;lon;timestamp;P1;durP1;ratioP1;P2;durP2;ratioP2
59930;SDS011;45790;51.538;6.736;2023-07-30T00:00:19;7.90;;;1.87;;
59930;SDS011;45790;51.538;6.736;2023-07-30T00:02:44;5.60;;;1.70;;
59930;SDS011;45790;51.538;6.736;2023-07-30T00:05:09;5.18;;;1.90;;
59930;SDS011;45790;51.538;6.736;2023-07-30T00:07:35;5.13;;;2.00;;
59930;SDS011;45790;51.538;6.736;2023-07-30T00:10:00;10.93;;;2.17;;
59930;SDS011;45790;51.538;6.736;2023-07-30T00:12:25;6.77;;;2.27;;
59930;SDS011;45790;51.538;6.736;2023-07-30T00:14:51;6.95;;;1.95;;
59930;SDS011;45790;51.538;6.736;2023-07-30T00:17:16;6.77;;;1.80;;
59930;SDS011;45790;51.538;6.736;2023-07-30T00:19:41;6.77;;;2.20;;
59930;SDS011;45790;51.538;6.736;2023-07-30T00:22:06;6.17;;;2.00;;
59930;SDS011;45790;51.538;6.736;2023-07-30T00:24:31;7.38;;;2.33;;
59930;SDS011;45790;51.538;6.736;2023-07-30T00:26:57;5.82;;;1.80;;
59930;SDS011;45790;51.538;6.736;2023-07-30T00:29:22;9.95;;;1.98;;
59930;SDS011;45790;51.538;6.736;2023-07-30T00:31:47;9.00;;;2.05;;
59930;SDS011;45790;51.538;6.736;2023-07-30T00:34:12;7.10;;;2.10;;
59930;SDS011;45790;51.538;6.736;2023-07-30T00:36:38;8.85;;;1.88;;
59930;SDS011;45790;51.538;6.736;2023-07-30T00:39:03;8.37;;;2.23;;
59930;SDS011;45790;51.538;6.736;2023-07-30T00:41:28;6.30;;;2.10;;
59930;SDS011;45790;51.538;6.736;2023-07-30T00:43:53;9.85;;;2.42;;
59930;SDS011;45790;51.538;6.736;2023-07-30T00:46:19;6.13;;;2.00;;
59930;SDS011;45790;51.538;6.736;2023-07-30T00:48:44;6.28;;;2.13;;
59930;SDS011;45790;51.538;6.736;2023-07-30T00:51:09;7.22;;;2.25;;
59930;SDS011;45790;51.538;6.736;2023-07-30T00:53:35;6.18;;;2.00;;
59930;SDS011;45790;51.538;6.736;2023-07-30T00:56:02;7.40;;;2.15;;
59930;SDS011;45790;51.538;6.736;2023-07-30T00:58:27;10.90;;;2.40;;
59930;SDS011;45790;51.538;6.736;2023-07-30T01:00:53;7.20;;;1.88;;
59930;SDS011;45790;51.538;6.736;2023-07-30T01:03:19;7.03;;;2.15;;
59930;SDS011;45790;51.538;6.736;2023-07-30T01:05:45;6.72;;;1.95;;
59930;SDS011;45790;51.538;6.736;2023-07-30T01:08:10;5.13;;;1.80;;
59930;SDS011;45790;51.538;6.736;2023-07-30T01:10:35;3.85;;;1.90;;
59930;SDS011;45790;51.538;6.736;2023-07-30T01:13:01;6.85;;;2.10;;
59930;SDS011;45790;51.538;6.736;2023-07-30T01:15:27;4.85;;;1.98;;
59930;SDS011;45790;51.538;6.736;2023-07-30T01:17:53;10.35;;;2.40;;
59930;SDS011;45790;51.538;6.736;2023-07-30T01:20:18;6.15;;;2.20;;
59930;SDS011;45790;51.538;6.736;2023-07-30T01:22:43;8.30;;;2.00;;
59930;SDS011;45790;51.538;6.736;2023-07-30T01:25:08;6.20;;;1.93;;
59930;SDS011;45790;51.538;6.736;2023-07-30T01:27:36;10.02;;;2.30;;
59930;SDS011;45790;51.538;6.736;2023-07-30T01:32:36;4.75;;;2.00;;
59930;SDS011;45790;51.538;6.736;2023-07-30T01:35:02;10.38;;;2.53;;
59930;SDS011;45790;51.538;6.736;2023-07-30T01:37:29;5.88;;;2.30;;
59930;SDS011;45790;51.538;6.736;2023-07-30T01:39:54;5.32;;;2.08;;
59930;SDS011;45790;51.538;6.736;2023-07-30T01:42:20;8.30;;;2.13;;
59930;SDS011;45790;51.538;6.736;2023-07-30T01:44:45;5.03;;;2.05;;
59930;SDS011;45790;51.538;6.736;2023-07-30T01:47:10;5.82;;;2.00;;
59930;SDS011;45790;51.538;6.736;2023-07-30T01:49:36;10.13;;;2.43;;
59930;SDS011;45790;51.538;6.736;2023-07-30T01:52:01;5.73;;;2.20;;
59930;SDS011;45790;51.538;6.736;2023-07-30T01:54:26;7.07;;;2.00;;
59930;SDS011;45790;51.538;6.736;2023-07-30T01:56:51;5.97;;;2.25;;
59930;SDS011;45790;51.538;6.736;2023-07-30T01:59:17;8.80;;;2.30;;
59930;SDS011;45790;51.538;6.736;2023-07-30T02:01:42;5.50;;;2.20;;
59930;SDS011;45790;51.538;6.736;2023-07-30T02:04:08;7.30;;;2.40;;
59930;SDS011;45790;51.538;6.736;2023-07-30T02:06:33;6.07;;;2.17;;
59930;SDS011;45790;51.538;6.736;2023-07-30T02:08:58;7.15;;;2.38;;
59930;SDS011;45790;51.538;6.736;2023-07-30T02:11:24;5.13;;;2.63;;
59930;SDS011;45790;51.538;6.736;2023-07-30T02:13:49;5.80;;;1.98;;
59930;SDS011;45790;51.538;6.736;2023-07-30T02:16:14;6.55;;;2.35;;
59930;SDS011;45790;51.538;6.736;2023-07-30T02:18:39;7.67;;;2.07;;
59930;SDS011;45790;51.538;6.736;2023-07-30T02:21:04;8.27;;;2.38;;
59930;SDS011;45790;51.538;6.736;2023-07-30T02:23:30;8.70;;;2.30;;
59930;SDS011;45790;51.538;6.736;2023-07-30T02:25:55;6.70;;;2.47;;
59930;SDS011;45790;51.538;6.736;2023-07-30T02:28:20;5.82;;;2.08;;
59930;SDS011;45790;51.538;6.736;2023-07-30T02:30:45;5.53;;;2.40;;
59930;SDS011;45790;51.538;6.736;2023-07-30T02:33:11;6.22;;;2.42;;
59930;SDS011;45790;51.538;6.736;2023-07-30T02:35:36;6.80;;;2.30;;
59930;SDS011;45790;51.538;6.736;2023-07-30T02:38:01;8.90;;;2.47;;
59930;SDS011;45790;51.538;6.736;2023-07-30T02:40:26;7.35;;;2.10;;
59930;SDS011;45790;51.538;6.736;2023-07-30T02:42:52;6.00;;;2.10;;
59930;SDS011;45790;51.538;6.736;2023-07-30T02:45:17;11.68;;;2.90;;
59930;SDS011;45790;51.538;6.736;2023-07-30T02:47:43;7.60;;;2.47;;
59930;SDS011;45790;51.538;6.736;2023-07-30T02:50:08;9.70;;;2.78;;
59930;SDS011;45790;51.538;6.736;2023-07-30T02:52:33;5.65;;;2.45;;
59930;SDS011;45790;51.538;6.736;2023-07-30T02:54:59;8.80;;;2.42;;
59930;SDS011;45790;51.538;6.736;2023-07-30T02:57:24;5.77;;;2.13;;
59930;SDS011;45790;51.538;6.736;2023-07-30T02:59:49;9.67;;;2.57;;
59930;SDS011;45790;51.538;6.736;2023-07-30T03:02:14;7.90;;;2.83;;
59930;SDS011;45790;51.538;6.736;2023-07-30T03:04:40;8.40;;;2.80;;
59930;SDS011;45790;51.538;6.736;2023-07-30T03:07:05;7.63;;;2.33;;
59930;SDS011;45790;51.538;6.736;2023-07-30T03:09:30;5.68;;;2.20;;
59930;SDS011;45790;51.538;6.736;2023-07-30T03:11:56;14.27;;;2.37;;
59930;SDS011;45790;51.538;6.736;2023-07-30T03:14:21;11.73;;;2.67;;
59930;SDS011;45790;51.538;6.736;2023-07-30T03:16:46;8.60;;;2.53;;
59930;SDS011;45790;51.538;6.736;2023-07-30T03:19:12;6.22;;;2.58;;
59930;SDS011;45790;51.538;6.736;2023-07-30T03:21:37;10.95;;;2.50;;
59930;SDS011;45790;51.538;6.736;2023-07-30T03:24:02;6.60;;;2.25;;
59930;SDS011;45790;51.538;6.736;2023-07-30T03:26:27;8.20;;;2.50;;
59930;SDS011;45790;51.538;6.736;2023-07-30T03:28:52;7.77;;;2.50;;
59930;SDS011;45790;51.538;6.736;2023-07-30T03:31:18;6.97;;;2.50;;
59930;SDS011;45790;51.538;6.736;2023-07-30T03:33:43;9.77;;;2.37;;
59930;SDS011;45790;51.538;6.736;2023-07-30T03:36:11;8.13;;;2.40;;
59930;SDS011;45790;51.538;6.736;2023-07-30T03:38:36;7.18;;;2.30;;
59930;SDS011;45790;51.538;6.736;2023-07-30T03:41:02;12.07;;;2.47;;
59930;SDS011;45790;51.538;6.736;2023-07-30T03:43:27;10.82;;;2.50;;
59930;SDS011;45790;51.538;6.736;2023-07-30T03:45:52;9.95;;;2.80;;
59930;SDS011;45790;51.538;6.736;2023-07-30T03:48:17;7.07;;;2.20;;
59930;SDS011;45790;51.538;6.736;2023-07-30T03:50:42;6.07;;;2.30;;
59930;SDS011;45790;51.538;6.736;2023-07-30T03:53:08;7.65;;;2.33;;
59930;SDS011;45790;51.538;6.736;2023-07-30T03:55:33;8.25;;;2.60;;
59930;SDS011;45790;51.538;6.736;2023-07-30T03:57:58;5.63;;;2.75;;
59930;SDS011;45790;51.538;6.736;2023-07-30T04:00:23;8.03;;;2.40;;
59930;SDS011;45790;51.538;6.736;2023-07-30T04:02:49;9.30;;;2.47;;
59930;SDS011;45790;51.538;6.736;2023-07-30T04:05:14;9.35;;;2.60;;
59930;SDS011;45790;51.538;6.736;2023-07-30T04:07:39;8.05;;;2.20;;
59930;SDS011;45790;51.538;6.736;2023-07-30T04:10:04;9.98;;;2.35;;
59930;SDS011;45790;51.538;6.736;2023-07-30T04:12:30;8.35;;;2.40;;
59930;SDS011;45790;51.538;6.736;2023-07-30T04:14:55;9.27;;;2.60;;
59930;SDS011;45790;51.538;6.736;2023-07-30T04:17:20;9.07;;;2.33;;
59930;SDS011;45790;51.538;6.736;2023-07-30T04:19:45;7.33;;;2.13;;
59930;SDS011;45790;51.538;6.736;2023-07-30T04:22:11;9.30;;;2.42;;
59930;SDS011;45790;51.538;6.736;2023-07-30T04:24:36;9.32;;;2.25;;
59930;SDS011;45790;51.538;6.736;2023-07-30T04:27:01;8.67;;;2.17;;
59930;SDS011;45790;51.538;6.736;2023-07-30T04:29:26;10.27;;;2.22;;
59930;SDS011;45790;51.538;6.736;2023-07-30T04:31:52;11.98;;;2.47;;
59930;SDS011;45790;51.538;6.736;2023-07-30T04:34:17;7.63;;;2.43;;
59930;SDS011;45790;51.538;6.736;2023-07-30T04:36:42;10.85;;;2.40;;
59930;SDS011;45790;51.538;6.736;2023-07-30T04:39:07;11.45;;;2.42;;
59930;SDS011;45790;51.538;6.736;2023-07-30T04:41:33;9.95;;;2.58;;
59930;SDS011;45790;51.538;6.736;2023-07-30T04:43:58;11.73;;;2.63;;
59930;SDS011;45790;51.538;6.736;2023-07-30T04:46:23;11.27;;;2.85;;
59930;SDS011;45790;51.538;6.736;2023-07-30T04:48:50;11.15;;;2.80;;
59930;SDS011;45790;51.538;6.736;2023-07-30T04:51:15;12.03;;;2.53;;
59930;SDS011;45790;51.538;6.736;2023-07-30T04:53:41;8.27;;;2.77;;
59930;SDS011;45790;51.538;6.736;2023-07-30T04:56:06;8.13;;;2.33;;
59930;SDS011;45790;51.538;6.736;2023-07-30T04:58:31;12.18;;;2.95;;
59930;SDS011;45790;51.538;6.736;2023-07-30T05:00:56;10.27;;;2.90;;
59930;SDS011;45790;51.538;6.736;2023-07-30T05:03:21;13.00;;;2.60;;
59930;SDS011;45790;51.538;6.736;2023-07-30T05:05:47;11.80;;;2.88;;
59930;SDS011;45790;51.538;6.736;2023-07-30T05:08:13;8.50;;;2.97;;
59930;SDS011;45790;51.538;6.736;2023-07-30T05:10:38;11.60;;;2.78;;
59930;SDS011;45790;51.538;6.736;2023-07-30T05:13:04;13.82;;;3.38;;
59930;SDS011;45790;51.538;6.736;2023-07-30T05:15:29;8.50;;;2.90;;
59930;SDS011;45790;51.538;6.736;2023-07-30T05:17:54;14.80;;;3.53;;
59930;SDS011;45790;51.538;6.736;2023-07-30T05:20:19;12.83;;;3.60;;
59930;SDS011;45790;51.538;6.736;2023-07-30T05:22:44;14.25;;;3.58;;
59930;SDS011;45790;51.538;6.736;2023-07-30T05:25:10;13.53;;;3.80;;
59930;SDS011;45790;51.538;6.736;2023-07-30T05:27:35;12.07;;;4.10;;
59930;SDS011;45790;51.538;6.736;2023-07-30T05:30:00;18.75;;;4.13;;
59930;SDS011;45790;51.538;6.736;2023-07-30T05:32:26;19.45;;;4.57;;
59930;SDS011;45790;51.538;6.736;2023-07-30T05:34:51;13.45;;;4.00;;
59930;SDS011;45790;51.538;6.736;2023-07-30T05:37:16;17.07;;;4.30;;
59930;SDS011;45790;51.538;6.736;2023-07-30T05:39:41;14.30;;;4.00;;
59930;SDS011;45790;51.538;6.736;2023-07-30T05:42:07;13.57;;;4.13;;
59930;SDS011;45790;51.538;6.736;2023-07-30T05:44:32;13.17;;;3.87;;
59930;SDS011;45790;51.538;6.736;2023-07-30T05:46:57;10.40;;;4.30;;
59930;SDS011;45790;51.538;6.736;2023-07-30T05:49:22;13.35;;;4.53;;
59930;SDS011;45790;51.538;6.736;2023-07-30T05:51:48;14.23;;;4.23;;
59930;SDS011;45790;51.538;6.736;2023-07-30T05:54:13;15.50;;;4.53;;
59930;SDS011;45790;51.538;6.736;2023-07-30T05:56:38;11.07;;;3.88;;
59930;SDS011;45790;51.538;6.736;2023-07-30T05:59:03;12.87;;;4.40;;
59930;SDS011;45790;51.538;6.736;2023-07-30T06:01:28;15.77;;;5.03;;
59930;SDS011;45790;51.538;6.736;2023-07-30T06:03:54;16.20;;;4.40;;
59930;SDS011;45790;51.538;6.736;2023-07-30T06:06:19;17.67;;;3.67;;
59930;SDS011;45790;51.538;6.736;2023-07-30T06:08:52;18.95;;;4.07;;
59930;SDS011;45790;51.538;6.736;2023-07-30T06:11:17;13.02;;;3.65;;
59930;SDS011;45790;51.538;6.736;2023-07-30T06:13:42;13.37;;;3.23;;
59930;SDS011;45790;51.538;6.736;2023-07-30T06:16:07;13.23;;;3.40;;
59930;SDS011;45790;51.538;6.736;2023-07-30T06:18:33;16.55;;;4.18;;
59930;SDS011;45790;51.538;6.736;2023-07-30T06:20:58;17.53;;;3.50;;
59930;SDS011;45790;51.538;6.736;2023-07-30T06:23:23;11.10;;;3.05;;
59930;SDS011;45790;51.538;6.736;2023-07-30T06:25:48;10.40;;;3.30;;
59930;SDS011;45790;51.538;6.736;2023-07-30T06:28:13;16.73;;;3.63;;
59930;SDS011;45790;51.538;6.736;2023-07-30T06:30:39;12.17;;;3.17;;
59930;SDS011;45790;51.538;6.736;2023-07-30T06:33:04;16.33;;;3.50;;
59930;SDS011;45790;51.538;6.736;2023-07-30T06:35:29;12.57;;;3.00;;
59930;SDS011;45790;51.538;6.736;2023-07-30T06:37:54;12.03;;;3.07;;
59930;SDS011;45790;51.538;6.736;2023-07-30T06:40:20;13.83;;;2.83;;
59930;SDS011;45790;51.538;6.736;2023-07-30T06:42:45;9.80;;;2.60;;
59930;SDS011;45790;51.538;6.736;2023-07-30T06:45:10;11.97;;;2.73;;
59930;SDS011;45790;51.538;6.736;2023-07-30T06:47:35;12.80;;;3.00;;
59930;SDS011;45790;51.538;6.736;2023-07-30T06:50:01;16.77;;;3.13;;
59930;SDS011;45790;51.538;6.736;2023-07-30T06:52:26;9.30;;;2.58;;
59930;SDS011;45790;51.538;6.736;2023-07-30T06:54:51;11.07;;;2.50;;
59930;SDS011;45790;51.538;6.736;2023-07-30T06:57:17;7.38;;;2.30;;
59930;SDS011;45790;51.538;6.736;2023-07-30T06:59:42;11.98;;;2.42;;
59930;SDS011;45790;51.538;6.736;2023-07-30T07:02:07;9.93;;;2.37;;
59930;SDS011;45790;51.538;6.736;2023-07-30T07:04:32;12.25;;;2.58;;
59930;SDS011;45790;51.538;6.736;2023-07-30T07:06:58;12.63;;;2.97;;
59930;SDS011;45790;51.538;6.736;2023-07-30T07:09:23;9.17;;;2.50;;
59930;SDS011;45790;51.538;6.736;2023-07-30T07:11:48;8.93;;;2.10;;
59930;SDS011;45790;51.538;6.736;2023-07-30T07:14:13;10.13;;;2.13;;
59930;SDS011;45790;51.538;6.736;2023-07-30T07:16:38;9.10;;;1.73;;
59930;SDS011;45790;51.538;6.736;2023-07-30T07:19:04;8.52;;;1.85;;
59930;SDS011;45790;51.538;6.736;2023-07-30T07:21:29;8.18;;;1.85;;
59930;SDS011;45790;51.538;6.736;2023-07-30T07:23:54;7.13;;;2.00;;
59930;SDS011;45790;51.538;6.736;2023-07-30T07:26:20;7.07;;;1.65;;
59930;SDS011;45790;51.538;6.736;2023-07-30T07:28:45;8.90;;;1.80;;
59930;SDS011;45790;51.538;6.736;2023-07-30T07:31:11;12.32;;;2.00;;
59930;SDS011;45790;51.538;6.736;2023-07-30T07:33:36;5.50;;;1.58;;
59930;SDS011;45790;51.538;6.736;2023-07-30T07:36:05;9.00;;;1.92;;
59930;SDS011;45790;51.538;6.736;2023-07-30T07:38:31;7.07;;;1.83;;
59930;SDS011;45790;51.538;6.736;2023-07-30T07:40:57;8.32;;;2.10;;
59930;SDS011;45790;51.538;6.736;2023-07-30T07:43:22;6.65;;;1.88;;
59930;SDS011;45790;51.538;6.736;2023-07-30T07:45:47;14.27;;;2.38;;
59930;SDS011;45790;51.538;6.736;2023-07-30T07:48:13;10.33;;;2.20;;
59930;SDS011;45790;51.538;6.736;2023-07-30T07:50:38;7.07;;;2.40;;
59930;SDS011;45790;51.538;6.736;2023-07-30T07:53:03;12.07;;;2.20;;
59930;SDS011;45790;51.538;6.736;2023-07-30T07:55:28;12.70;;;2.30;;
59930;SDS011;45790;51.538;6.736;2023-07-30T07:57:53;8.80;;;2.20;;
59930;SDS011;45790;51.538;6.736;2023-07-30T08:00:19;9.45;;;2.30;;
59930;SDS011;45790;51.538;6.736;2023-07-30T08:02:44;9.40;;;2.20;;
59930;SDS011;45790;51.538;6.736;2023-07-30T08:05:09;10.45;;;2.20;;
59930;SDS011;45790;51.538;6.736;2023-07-30T08:07:34;9.40;;;2.17;;
59930;SDS011;45790;51.538;6.736;2023-07-30T08:10:00;8.85;;;2.40;;
59930;SDS011;45790;51.538;6.736;2023-07-30T08:12:25;8.30;;;2.33;;
59930;SDS011;45790;51.538;6.736;2023-07-30T08:14:50;7.88;;;1.98;;
59930;SDS011;45790;51.538;6.736;2023-07-30T08:17:16;12.27;;;2.40;;
59930;SDS011;45790;51.538;6.736;2023-07-30T08:19:41;12.45;;;2.72;;
59930;SDS011;45790;51.538;6.736;2023-07-30T08:22:07;13.50;;;2.43;;
59930;SDS011;45790;51.538;6.736;2023-07-30T08:24:32;11.90;;;2.90;;
59930;SDS011;45790;51.538;6.736;2023-07-30T08:26:57;11.97;;;2.43;;
59930;SDS011;45790;51.538;6.736;2023-07-30T08:29:22;8.40;;;2.03;;
59930;SDS011;45790;51.538;6.736;2023-07-30T08:31:47;8.80;;;2.50;;
59930;SDS011;45790;51.538;6.736;2023-07-30T08:34:13;11.47;;;2.80;;
59930;SDS011;45790;51.538;6.736;2023-07-30T08:36:38;11.38;;;2.75;;
59930;SDS011;45790;51.538;6.736;2023-07-30T08:39:03;13.83;;;2.50;;
59930;SDS011;45790;51.538;6.736;2023-07-30T08:41:29;12.20;;;2.65;;
59930;SDS011;45790;51.538;6.736;2023-07-30T08:43:54;11.98;;;2.25;;
59930;SDS011;45790;51.538;6.736;2023-07-30T08:46:19;11.07;;;2.47;;
59930;SDS011;45790;51.538;6.736;2023-07-30T08:48:44;13.70;;;2.50;;
59930;SDS011;45790;51.538;6.736;2023-07-30T08:51:10;12.18;;;2.47;;
59930;SDS011;45790;51.538;6.736;2023-07-30T08:53:36;11.65;;;2.50;;
59930;SDS011;45790;51.538;6.736;2023-07-30T08:56:01;9.80;;;2.53;;
59930;SDS011;45790;51.538;6.736;2023-07-30T08:58:27;9.13;;;2.17;;
59930;SDS011;45790;51.538;6.736;2023-07-30T09:00:53;13.30;;;2.70;;
59930;SDS011;45790;51.538;6.736;2023-07-30T09:03:20;13.45;;;2.67;;
59930;SDS011;45790;51.538;6.736;2023-07-30T09:05:46;12.50;;;2.78;;
59930;SDS011;45790;51.538;6.736;2023-07-30T09:08:12;13.27;;;2.80;;
59930;SDS011;45790;51.538;6.736;2023-07-30T09:10:37;9.68;;;2.03;;
59930;SDS011;45790;51.538;6.736;2023-07-30T09:13:02;12.73;;;2.60;;
59930;SDS011;45790;51.538;6.736;2023-07-30T09:15:35;13.05;;;2.33;;
59930;SDS011;45790;51.538;6.736;2023-07-30T09:18:02;10.45;;;2.00;;
59930;SDS011;45790;51.538;6.736;2023-07-30T09:20:27;11.60;;;2.38;;
59930;SDS011;45790;51.538;6.736;2023-07-30T09:22:55;10.65;;;2.35;;
59930;SDS011;45790;51.538;6.736;2023-07-30T09:25:21;13.50;;;2.28;;
59930;SDS011;45790;51.538;6.736;2023-07-30T09:27:50;13.77;;;2.20;;
59930;SDS011;45790;51.538;6.736;2023-07-30T09:30:15;11.43;;;2.17;;
59930;SDS011;45790;51.538;6.736;2023-07-30T09:32:46;15.45;;;2.42;;
59930;SDS011;45790;51.538;6.736;2023-07-30T09:35:15;10.02;;;2.00;;
59930;SDS011;45790;51.538;6.736;2023-07-30T09:37:41;13.98;;;2.25;;
59930;SDS011;45790;51.538;6.736;2023-07-30T09:40:10;8.10;;;1.98;;
59930;SDS011;45790;51.538;6.736;2023-07-30T09:42:37;14.05;;;2.13;;
59930;SDS011;45790;51.538;6.736;2023-07-30T09:45:05;10.85;;;2.15;;
59930;SDS011;45790;51.538;6.736;2023-07-30T09:47:32;13.95;;;2.53;;
59930;SDS011;45790;51.538;6.736;2023-07-30T09:49:59;10.52;;;2.08;;
59930;SDS011;45790;51.538;6.736;2023-07-30T09:52:24;10.57;;;2.17;;
59930;SDS011;45790;51.538;6.736;2023-07-30T09:54:49;8.70;;;1.77;;
59930;SDS011;45790;51.538;6.736;2023-07-30T09:57:16;12.75;;;2.10;;
59930;SDS011;45790;51.538;6.736;2023-07-30T09:59:41;8.02;;;1.90;;
59930;SDS011;45790;51.538;6.736;2023-07-30T10:02:07;10.63;;;1.83;;
59930;SDS011;45790;51.538;6.736;2023-07-30T10:04:33;8.63;;;2.00;;
59930;SDS011;45790;51.538;6.736;2023-07-30T10:07:01;9.15;;;1.80;;
59930;SDS011;45790;51.538;6.736;2023-07-30T10:09:30;8.65;;;2.05;;
59930;SDS011;45790;51.538;6.736;2023-07-30T10:11:55;10.48;;;2.22;;
59930;SDS011;45790;51.538;6.736;2023-07-30T10:14:23;10.27;;;2.20;;
59930;SDS011;45790;51.538;6.736;2023-07-30T10:16:58;7.50;;;1.67;;
59930;SDS011;45790;51.538;6.736;2023-07-30T10:19:27;11.32;;;2.38;;
59930;SDS011;45790;51.538;6.736;2023-07-30T10:24:33;9.38;;;2.05;;
59930;SDS011;45790;51.538;6.736;2023-07-30T10:27:04;10.10;;;2.20;;
59930;SDS011;45790;51.538;6.736;2023-07-30T10:29:30;8.60;;;1.88;;
59930;SDS011;45790;51.538;6.736;2023-07-30T10:31:56;8.83;;;1.70;;
59930;SDS011;45790;51.538;6.736;2023-07-30T10:34:22;7.82;;;1.90;;
59930;SDS011;45790;51.538;6.736;2023-07-30T10:36:50;7.32;;;1.88;;
59930;SDS011;45790;51.538;6.736;2023-07-30T10:39:17;10.85;;;1.90;;
59930;SDS011;45790;51.538;6.736;2023-07-30T10:41:43;8.93;;;1.77;;
59930;SDS011;45790;51.538;6.736;2023-07-30T10:44:08;8.60;;;1.70;;
59930;SDS011;45790;51.538;6.736;2023-07-30T10:46:41;5.80;;;1.40;;
59930;SDS011;45790;51.538;6.736;2023-07-30T10:49:07;11.60;;;2.10;;
59930;SDS011;45790;51.538;6.736;2023-07-30T10:51:34;9.18;;;2.03;;
59930;SDS011;45790;51.538;6.736;2023-07-30T10:53:59;7.27;;;1.70;;
59930;SDS011;45790;51.538;6.736;2023-07-30T10:56:24;9.17;;;1.50;;
59930;SDS011;45790;51.538;6.736;2023-07-30T10:58:53;8.73;;;2.08;;
59930;SDS011;45790;51.538;6.736;2023-07-30T11:01:18;11.57;;;2.22;;
59930;SDS011;45790;51.538;6.736;2023-07-30T11:03:47;8.20;;;1.70;;
59930;SDS011;45790;51.538;6.736;2023-07-30T11:06:13;10.85;;;1.83;;
59930;SDS011;45790;51.538;6.736;2023-07-30T11:08:38;7.32;;;1.92;;
59930;SDS011;45790;51.538;6.736;2023-07-30T11:11:04;11.60;;;1.90;;
59930;SDS011;45790;51.538;6.736;2023-07-30T11:13:34;7.50;;;1.63;;
59930;SDS011;45790;51.538;6.736;2023-07-30T11:15:59;11.15;;;1.50;;
59930;SDS011;45790;51.538;6.736;2023-07-30T11:18:25;8.83;;;1.73;;
59930;SDS011;45790;51.538;6.736;2023-07-30T11:20:50;8.95;;;1.88;;
59930;SDS011;45790;51.538;6.736;2023-07-30T11:23:17;12.65;;;1.88;;
59930;SDS011;45790;51.538;6.736;2023-07-30T11:25:45;6.53;;;1.55;;
59930;SDS011;45790;51.538;6.736;2023-07-30T11:28:10;10.75;;;1.73;;
59930;SDS011;45790;51.538;6.736;2023-07-30T11:30:35;12.77;;;2.23;;
59930;SDS011;45790;51.538;6.736;2023-07-30T11:33:01;8.15;;;1.48;;
59930;SDS011;45790;51.538;6.736;2023-07-30T11:35:26;12.60;;;2.30;;
59930;SDS011;45790;51.538;6.736;2023-07-30T11:37:51;7.28;;;1.60;;
59930;SDS011;45790;51.538;6.736;2023-07-30T11:40:17;8.90;;;2.00;;
59930;SDS011;45790;51.538;6.736;2023-07-30T11:42:42;7.95;;;1.60;;
59930;SDS011;45790;51.538;6.736;2023-07-30T11:45:17;10.68;;;1.77;;
59930;SDS011;45790;51.538;6.736;2023-07-30T11:47:43;9.85;;;2.35;;
59930;SDS011;45790;51.538;6.736;2023-07-30T11:50:08;9.77;;;2.08;;
59930;SDS011;45790;51.538;6.736;2023-07-30T11:52:33;8.00;;;1.83;;
59930;SDS011;45790;51.538;6.736;2023-07-30T11:54:59;6.37;;;1.70;;
59930;SDS011;45790;51.538;6.736;2023-07-30T11:57:32;9.32;;;1.90;;
59930;SDS011;45790;51.538;6.736;2023-07-30T11:59:57;8.88;;;2.05;;
59930;SDS011;45790;51.538;6.736;2023-07-30T12:02:23;9.65;;;1.63;;
59930;SDS011;45790;51.538;6.736;2023-07-30T12:04:49;7.90;;;2.05;;
59930;SDS011;45790;51.538;6.736;2023-07-30T12:07:21;7.53;;;2.00;;
59930;SDS011;45790;51.538;6.736;2023-07-30T12:09:47;7.40;;;1.63;;
59930;SDS011;45790;51.538;6.736;2023-07-30T12:12:12;8.43;;;1.70;;
59930;SDS011;45790;51.538;6.736;2023-07-30T12:14:44;7.00;;;1.93;;
59930;SDS011;45790;51.538;6.736;2023-07-30T12:17:17;8.18;;;1.30;;
59930;SDS011;45790;51.538;6.736;2023-07-30T12:19:42;8.30;;;1.60;;
59930;SDS011;45790;51.538;6.736;2023-07-30T12:22:07;5.90;;;1.30;;
59930;SDS011;45790;51.538;6.736;2023-07-30T12:24:33;8.82;;;1.52;;
59930;SDS011;45790;51.538;6.736;2023-07-30T12:26:58;6.32;;;1.42;;
59930;SDS011;45790;51.538;6.736;2023-07-30T12:29:24;6.35;;;1.67;;
59930;SDS011;45790;51.538;6.736;2023-07-30T12:31:49;5.50;;;1.42;;
59930;SDS011;45790;51.538;6.736;2023-07-30T12:34:16;7.13;;;1.40;;
59930;SDS011;45790;51.538;6.736;2023-07-30T12:36:42;7.68;;;1.38;;
59930;SDS011;45790;51.538;6.736;2023-07-30T12:39:07;5.40;;;1.40;;
59930;SDS011;45790;51.538;6.736;2023-07-30T12:41:33;5.65;;;1.20;;
59930;SDS011;45790;51.538;6.736;2023-07-30T12:43:58;6.33;;;1.37;;
59930;SDS011;45790;51.538;6.736;2023-07-30T12:46:23;7.27;;;1.70;;
59930;SDS011;45790;51.538;6.736;2023-07-30T12:48:48;10.40;;;1.33;;
59930;SDS011;45790;51.538;6.736;2023-07-30T12:51:14;9.83;;;1.60;;
59930;SDS011;45790;51.538;6.736;2023-07-30T12:53:39;6.60;;;1.20;;
59930;SDS011;45790;51.538;6.736;2023-07-30T12:56:04;8.70;;;1.30;;
59930;SDS011;45790;51.538;6.736;2023-07-30T12:58:29;4.23;;;1.10;;
59930;SDS011;45790;51.538;6.736;2023-07-30T13:00:54;5.40;;;1.30;;
59930;SDS011;45790;51.538;6.736;2023-07-30T13:03:20;6.23;;;1.40;;
59930;SDS011;45790;51.538;6.736;2023-07-30T13:05:45;5.53;;;1.40;;
59930;SDS011;45790;51.538;6.736;2023-07-30T13:08:10;6.37;;;1.60;;
59930;SDS011;45790;51.538;6.736;2023-07-30T13:10:35;5.07;;;1.43;;
59930;SDS011;45790;51.538;6.736;2023-07-30T13:13:00;8.37;;;1.63;;
59930;SDS011;45790;51.538;6.736;2023-07-30T13:15:26;6.60;;;1.23;;
59930;SDS011;45790;51.538;6.736;2023-07-30T13:17:52;7.70;;;1.50;;
59930;SDS011;45790;51.538;6.736;2023-07-30T13:20:18;5.05;;;1.25;;
59930;SDS011;45790;51.538;6.736;2023-07-30T13:22:43;7.23;;;1.73;;
59930;SDS011;45790;51.538;6.736;2023-07-30T13:25:08;6.23;;;1.57;;
59930;SDS011;45790;51.538;6.736;2023-07-30T13:27:33;5.53;;;1.10;;
59930;SDS011;45790;51.538;6.736;2023-07-30T13:29:58;8.23;;;1.50;;
59930;SDS011;45790;51.538;6.736;2023-07-30T13:32:24;7.77;;;1.60;;
59930;SDS011;45790;51.538;6.736;2023-07-30T13:34:49;4.18;;;1.30;;
59930;SDS011;45790;51.538;6.736;2023-07-30T13:37:14;5.77;;;1.57;;
59930;SDS011;45790;51.538;6.736;2023-07-30T13:39:40;5.20;;;1.17;;
59930;SDS011;45790;51.538;6.736;2023-07-30T13:42:05;6.30;;;1.40;;
59930;SDS011;45790;51.538;6.736;2023-07-30T13:44:30;6.10;;;1.35;;
59930;SDS011;45790;51.538;6.736;2023-07-30T13:46:55;6.57;;;1.10;;
59930;SDS011;45790;51.538;6.736;2023-07-30T13:49:21;6.67;;;1.70;;
59930;SDS011;45790;51.538;6.736;2023-07-30T13:51:46;13.05;;;1.80;;
59930;SDS011;45790;51.538;6.736;2023-07-30T13:54:11;6.60;;;1.70;;
59930;SDS011;45790;51.538;6.736;2023-07-30T13:56:37;7.50;;;1.52;;
59930;SDS011;45790;51.538;6.736;2023-07-30T13:59:03;7.78;;;2.00;;
59930;SDS011;45790;51.538;6.736;2023-07-30T14:01:28;6.20;;;1.92;;
59930;SDS011;45790;51.538;6.736;2023-07-30T14:03:54;6.78;;;1.92;;
59930;SDS011;45790;51.538;6.736;2023-07-30T14:06:19;6.27;;;1.67;;
59930;SDS011;45790;51.538;6.736;2023-07-30T14:08:44;5.30;;;2.13;;
59930;SDS011;45790;51.538;6.736;2023-07-30T14:11:10;7.87;;;1.60;;
59930;SDS011;45790;51.538;6.736;2023-07-30T14:13:35;5.65;;;1.73;;
59930;SDS011;45790;51.538;6.736;2023-07-30T14:16:00;8.63;;;1.80;;
59930;SDS011;45790;51.538;6.736;2023-07-30T14:18:26;6.87;;;1.87;;
59930;SDS011;45790;51.538;6.736;2023-07-30T14:20:51;7.00;;;1.48;;
59930;SDS011;45790;51.538;6.736;2023-07-30T14:23:16;8.95;;;1.75;;
59930;SDS011;45790;51.538;6.736;2023-07-30T14:25:41;5.60;;;1.70;;
59930;SDS011;45790;51.538;6.736;2023-07-30T14:28:06;8.93;;;1.63;;
59930;SDS011;45790;51.538;6.736;2023-07-30T14:30:32;9.70;;;1.63;;
59930;SDS011;45790;51.538;6.736;2023-07-30T14:32:57;9.02;;;1.80;;
59930;SDS011;45790;51.538;6.736;2023-07-30T14:35:22;6.90;;;1.25;;
59930;SDS011;45790;51.538;6.736;2023-07-30T14:37:48;7.83;;;1.60;;